< < Back
Terminal Aerodrome Forecast


Current Version              Previous Versions:   1  2  3  4  5  6  7  8  9  

Terminal Aerodrome Forecast

979
FTUS42 KTAE 262337
TAFVLD
TAF
KVLD 262337Z 2700/2724 00000KT P6SM SCT150 BKN250
     FM271400 36004KT P6SM FEW050 SCT100 OVC250=

Latest METAR

428
SAUS70 KWBC 280200 RRA
MTRVLD
METAR KVLD 280153Z 11004KT 10SM CLR 19/17 A2982 RMK AO2 SLP104
T01940172


USA.gov is the U.S. government's official web portal to all federal, state and local government web resources and services.